Map

Track Data

SID SEASON NUMBER BASIN SUBBASIN NAME ISO_TIME NATURE LAT LON WMO_WIND WMO_PRES WMO_AGENCY TRACK_TYPE DIST2LAND LANDFALL IFLAG USA_AGENCY USA_ATCF_ID USA_LAT USA_LON USA_RECORD USA_STATUS USA_WIND USA_PRES USA_SSHS USA_R34_NE USA_R34_SE USA_R34_SW USA_R34_NW USA_R50_NE USA_R50_SE USA_R50_SW USA_R50_NW USA_R64_NE USA_R64_SE USA_R64_SW USA_R64_NW USA_POCI USA_ROCI USA_RMW USA_EYE TOKYO_LAT TOKYO_LON TOKYO_GRADE TOKYO_WIND TOKYO_PRES TOKYO_R50_DIR TOKYO_R50_LONG TOKYO_R50_SHORT TOKYO_R30_DIR TOKYO_R30_LONG TOKYO_R30_SHORT TOKYO_LAND CMA_LAT CMA_LON CMA_CAT CMA_WIND CMA_PRES HKO_LAT HKO_LON HKO_CAT HKO_WIND HKO_PRES NEWDELHI_LAT NEWDELHI_LON NEWDELHI_GRADE NEWDELHI_WIND NEWDELHI_PRES NEWDELHI_CI NEWDELHI_DP NEWDELHI_POCI REUNION_LAT REUNION_LON REUNION_TYPE REUNION_WIND REUNION_PRES REUNION_TNUM REUNION_CI REUNION_RMW REUNION_R34_NE REUNION_R34_SE REUNION_R34_SW REUNION_R34_NW REUNION_R50_NE REUNION_R50_SE REUNION_R50_SW REUNION_R50_NW REUNION_R64_NE REUNION_R64_SE REUNION_R64_SW REUNION_R64_NW BOM_LAT BOM_LON BOM_TYPE BOM_WIND BOM_PRES BOM_TNUM BOM_CI BOM_RMW BOM_R34_NE BOM_R34_SE BOM_R34_SW BOM_R34_NW BOM_R50_NE BOM_R50_SE BOM_R50_SW BOM_R50_NW BOM_R64_NE BOM_R64_SE BOM_R64_SW BOM_R64_NW BOM_ROCI BOM_POCI BOM_EYE BOM_POS_METHOD BOM_PRES_METHOD NADI_LAT NADI_LON NADI_CAT NADI_WIND NADI_PRES WELLINGTON_LAT WELLINGTON_LON WELLINGTON_WIND WELLINGTON_PRES DS824_LAT DS824_LON DS824_STAGE DS824_WIND DS824_PRES TD9636_LAT TD9636_LON TD9636_STAGE TD9636_WIND TD9636_PRES TD9635_LAT TD9635_LON TD9635_WIND TD9635_PRES TD9635_ROCI NEUMANN_LAT NEUMANN_LON NEUMANN_CLASS NEUMANN_WIND NEUMANN_PRES MLC_LAT MLC_LON MLC_CLASS MLC_WIND MLC_PRES USA_GUST BOM_GUST BOM_GUST_PER REUNION_GUST REUNION_GUST_PER USA_SEAHGT USA_SEARAD_NE USA_SEARAD_SE USA_SEARAD_SW USA_SEARAD_NW STORM_SPEED STORM_DIR
1930030S18059 1930 8 SI MM NOT_NAMED 1930-01-30 06:00:00 NR -18.3000 58.9000 reunion main 237 232 _____O________ -1 -18.3000 58.9000 99 9.90000 2 237
1930030S18059 1930 8 SI MM NOT_NAMED 1930-01-30 09:00:00 NR -18.3436 58.8250 main 232 222 _____P________ -1 -18.3436 58.8250 99 2 238
1930030S18059 1930 8 SI MM NOT_NAMED 1930-01-30 12:00:00 NR -18.3878 58.7488 main 217 217 _____P________ -1 -18.3878 58.7488 99 2 239
1930030S18059 1930 8 SI MM NOT_NAMED 1930-01-30 15:00:00 NR -18.4332 58.6702 main 217 202 _____P________ -1 -18.4332 58.6702 99 2 238
1930030S18059 1930 8 SI MM NOT_NAMED 1930-01-30 18:00:00 NR -18.4804 58.5880 main 202 197 _____P________ -1 -18.4804 58.5880 99 2 239
1930030S18059 1930 8 SI MM NOT_NAMED 1930-01-30 21:00:00 NR -18.5301 58.5011 main 197 183 _____P________ -1 -18.5301 58.5011 99 2 239
1930030S18059 1930 8 SI MM NOT_NAMED 1930-01-31 00:00:00 NR -18.5829 58.4082 main 183 179 _____P________ -1 -18.5829 58.4082 99 2 239
1930030S18059 1930 8 SI MM NOT_NAMED 1930-01-31 03:00:00 NR -18.6393 58.3083 main 179 165 _____P________ -1 -18.6393 58.3083 99 2 239
1930030S18059 1930 8 SI MM NOT_NAMED 1930-01-31 06:00:00 NR -18.7000 58.2000 reunion main 165 151 _____O________ -1 -18.7000 58.2000 99 9.90000 2 239
1930030S18059 1930 8 SI MM NOT_NAMED 1930-01-31 09:00:00 NR -18.7656 58.0821 main 151 151 _____P________ -1 -18.7656 58.0821 99 1 261
1930030S18059 1930 8 SI MM NOT_NAMED 1930-01-31 12:00:00 NR -18.7092 58.1419 main 162 162 _____P____O___ -1 -18.8365 57.9524 99 -18.2000 58.9000 2 1 325
1930030S18059 1930 8 SI MM NOT_NAMED 1930-01-31 15:00:00 NR -18.7195 58.0513 main 162 146 _____P____P___ -1 -18.9132 57.8087 99 -18.3320 58.5365 2 3 257
1930030S18059 1930 8 SI MM NOT_NAMED 1930-01-31 18:00:00 NR -18.7668 57.8799 main 146 145 _____P____P___ -1 -18.9963 57.6487 99 -18.4608 58.1881 2 4 252
1930030S18059 1930 8 SI MM NOT_NAMED 1930-01-31 21:00:00 NR -18.8351 57.6704 main 145 134 _____P____P___ -1 -19.0860 57.4702 99 -18.5842 57.8707 2 4 250
1930030S18059 1930 8 SI MM NOT_NAMED 1930-02-01 00:00:00 TS -18.9146 57.4537 main 134 123 _____P___OO___ -1 -19.1830 57.2708 99 -18.7000 57.6000 TC 35 -18.7000 57.6000 2 4 247
1930030S18059 1930 8 SI MM NOT_NAMED 1930-02-01 03:00:00 TS -18.9977 57.2655 main 124 119 _____P___PP___ -1 -19.2875 57.0482 99 -18.8000 57.4600 TC 35 -18.8068 57.3857 2 4 244
1930030S18059 1930 8 SI MM NOT_NAMED 1930-02-01 06:00:00 TS -19.0844 57.0862 reunion main 119 118 _____O___OP___ -1 -19.4000 56.8000 99 9.90000 -18.9000 57.3000 TC 35 -18.9071 57.2122 2 4 243
1930030S18059 1930 8 SI MM NOT_NAMED 1930-02-01 09:00:00 TS -19.1784 56.8874 main 118 118 _____P___PP___ -1 -19.5314 56.4971 99 -19.0000 57.1075 TC 35 -19.0038 57.0576 2 5 243
1930030S18059 1930 8 SI MM NOT_NAMED 1930-02-01 12:00:00 TS -19.2908 56.6544 main 122 122 _____P___OO___ -1 -19.6725 56.1633 99 -19.1000 56.9000 TC 35 -19.1000 56.9000 2 5 243
1930030S18059 1930 8 SI MM NOT_NAMED 1930-02-01 15:00:00 TS -19.4051 56.4081 main 139 139 _____P___PP___ -1 -19.8194 55.8091 99 -19.2000 56.7000 TC 35 -19.1958 56.7152 2 5 244
1930030S18059 1930 8 SI MM NOT_NAMED 1930-02-01 18:00:00 TS -19.5201 56.1558 main 151 151 _____P___OP___ -1 -19.9678 55.4450 99 -19.3000 56.5000 TC 35 -19.2924 56.5223 2 5 244
1930030S18059 1930 8 SI MM NOT_NAMED 1930-02-01 21:00:00 TS -19.6330 55.9023 main 157 145 _____P___PP___ -1 -20.1139 55.0813 99 -19.3925 56.3074 TC 35 -19.3927 56.3183 2 5 244
1930030S18059 1930 8 SI MM NOT_NAMED 1930-02-02 00:00:00 TS -19.7513 55.6429 main 134 123 _____P___OO___ -1 -20.2538 54.7288 99 -19.5000 56.1000 TC 35 -19.5000 56.1000 2 6 243
1930030S18059 1930 8 SI MM NOT_NAMED 1930-02-02 03:00:00 TS -19.8838 55.3747 main 123 112 _____P___PP___ -1 -20.3838 54.3982 99 -19.6500 55.8575 TC 35 -19.6178 55.8684 2 6 242
1930030S18059 1930 8 SI MM NOT_NAMED 1930-02-02 06:00:00 TS -20.0141 55.1075 reunion main 113 105 _____O___OP___ -1 -20.5000 54.1000 99 9.90000 -19.8000 55.6000 TC 35 -19.7424 55.6224 2 5 244
1930030S18059 1930 8 SI MM NOT_NAMED 1930-02-02 09:00:00 TS -20.1169 54.8597 main 108 103 _____P___PP___ -1 -20.5800 53.8639 99 -19.9000 55.3499 TC 35 -19.8709 55.3652 2 5 246
1930030S18059 1930 8 SI MM NOT_NAMED 1930-02-02 12:00:00 TS -20.2155 54.6189 main 115 114 _____P___OO___ -1 -20.6464 53.6567 99 -20.0000 55.1000 TC 35 -20.0000 55.1000 2 5 245
1930030S18059 1930 8 SI MM NOT_NAMED 1930-02-02 15:00:00 TS -20.3262 54.3867 main 122 121 _____P___PP___ -1 -20.7036 53.4744 99 -20.1499 54.8575 TC 35 -20.1250 54.8280 2 5 243
1930030S18059 1930 8 SI MM NOT_NAMED 1930-02-02 18:00:00 TS -20.4353 54.1544 main 130 130 _____P___OP___ -1 -20.7559 53.3132 99 -20.3000 54.6000 TC 35 -20.2500 54.5499 2 5 246
1930030S18059 1930 8 SI MM NOT_NAMED 1930-02-02 21:00:00 TS -20.5275 53.9136 main 150 150 _____P___PP___ -1 -20.8074 53.1692 99 -20.4000 54.2999 TC 35 -20.3750 54.2718 2 5 247
1930030S18059 1930 8 SI MM NOT_NAMED 1930-02-03 00:00:00 TS -20.6208 53.6794 main 165 165 _____P___OO___ -1 -20.8625 53.0382 99 -20.5000 54.0000 TC 35 -20.5000 54.0000 2 5 244
1930030S18059 1930 8 SI MM NOT_NAMED 1930-02-03 03:00:00 TS -20.7333 53.4672 main 182 182 _____P___PP___ -1 -20.9253 52.9165 99 -20.6499 53.7425 TC 35 -20.6248 53.7427 2 5 239
1930030S18059 1930 8 SI MM NOT_NAMED 1930-02-03 06:00:00 TS -20.8499 53.2641 reunion main 200 198 _____O___OP___ -1 -21.0000 52.8000 99 9.90000 -20.8000 53.5000 TC 35 -20.7498 53.4923 2 4 241
1930030S18059 1930 8 SI MM NOT_NAMED 1930-02-03 09:00:00 TS -20.9480 53.0454 main 229 228 _____P___PP___ -1 -21.0692 52.6405 99 -20.9000 53.2499 TC 35 -20.8748 53.2458 2 5 244
1930030S18059 1930 8 SI MM NOT_NAMED 1930-02-03 12:00:00 TS -21.0483 52.8287 main 249 248 _____P___OO___ -1 -21.1450 52.4860 99 -21.0000 53.0000 TC 35 -21.0000 53.0000 2 5 242
1930030S18059 1930 8 SI MM NOT_NAMED 1930-02-03 15:00:00 TS -21.1690 52.6055 main 269 269 _____P___PP___ -1 -21.2321 52.3407 99 -21.1500 52.7500 TC 35 -21.1251 52.7257 2 5 239
1930030S18059 1930 8 SI MM NOT_NAMED 1930-02-03 18:00:00 TS -21.2951 52.3880 main 291 291 _____P___OP___ -1 -21.3351 52.2088 99 -21.3000 52.5000 TC 35 -21.2502 52.4551 2 5 238
1930030S18059 1930 8 SI MM NOT_NAMED 1930-02-03 21:00:00 TS -21.4138 52.1763 main 312 312 _____P___PP___ -1 -21.4586 52.0946 99 -21.4075 52.2275 TC 35 -21.3751 52.2069 2 4 236
1930030S18059 1930 8 SI MM NOT_NAMED 1930-02-04 00:00:00 TS -21.5358 52.0007 main 334 334 _____P___OO___ -1 -21.6075 52.0022 99 -21.5000 52.0000 TC 35 -21.5000 52.0000 2 4 227
1930030S18059 1930 8 SI MM NOT_NAMED 1930-02-04 03:00:00 TS -21.6679 51.8860 main 348 348 _____P___PP___ -1 -21.7864 51.9359 99 -21.5924 51.8774 TC 35 -21.6248 51.8445 2 3 212
1930030S18059 1930 8 SI MM NOT_NAMED 1930-02-04 06:00:00 TS -21.8166 51.8108 reunion main 360 360 _____O___OP___ -1 -22.0000 51.9000 99 9.90000 -21.7000 51.8000 TC 35 -21.7498 51.7323 2 4 200
1930030S18059 1930 8 SI MM NOT_NAMED 1930-02-04 09:00:00 TS -22.0078 51.7515 main 365 357 _____P___PP___ -1 -22.2986 51.9079 99 -21.8500 51.6925 TC 35 -21.8749 51.6540 2 4 192
1930030S18059 1930 8 SI MM NOT_NAMED 1930-02-04 12:00:00 TS -22.2127 51.7160 main 362 362 _____P___OO___ -1 -22.6381 51.9480 99 -22.0000 51.6000 TC 35 -22.0000 51.6000 2 4 185
1930030S18059 1930 8 SI MM NOT_NAMED 1930-02-04 15:00:00 TS -22.4095 51.7036 main 366 366 _____P___PP___ -1 -23.0035 52.0138 99 -22.1000 51.5350 TC 35 -22.1251 51.5619 2 5 175
1930030S18059 1930 8 SI MM NOT_NAMED 1930-02-04 18:00:00 TS -22.6871 51.7501 main 383 383 _____P___OP___ -1 -23.3801 52.0990 99 -22.2000 51.5000 TC 35 -22.2501 51.5351 2 7 168
1930030S18059 1930 8 SI MM NOT_NAMED 1930-02-04 21:00:00 TS -23.0546 51.8505 main 403 403 _____P___PP___ -1 -23.7530 52.1969 99 -22.3375 51.4925 TC 35 -22.3750 51.5157 2 9 163
1930030S18059 1930 8 SI MM NOT_NAMED 1930-02-05 00:00:00 TS -23.5714 52.0340 main 425 417 _____P___OO___ -1 -24.1071 52.3010 99 -22.5000 51.5000 TC 35 -22.5000 51.5000 2 15 160
1930030S18059 1930 8 SI MM NOT_NAMED 1930-02-05 03:00:00 NR -24.4277 52.4043 main 456 456 _____P________ -1 -24.4277 52.4043 99 TC 2 12 159
1930030S18059 1930 8 SI MM NOT_NAMED 1930-02-05 06:00:00 NR -24.7000 52.5000 reunion main 475 475 _____O________ -1 -24.7000 52.5000 99 9.90000 2 5 162
1930030S18059 1930 8 SI MM NOT_NAMED 1930-02-05 09:00:00 NR -24.9129 52.5826 main 487 487 _____P________ -1 -24.9129 52.5826 99 2 4 160
1930030S18059 1930 8 SI MM NOT_NAMED 1930-02-05 12:00:00 NR -25.0706 52.6522 main 500 500 _____P________ -1 -25.0706 52.6522 99 3 156
1930030S18059 1930 8 SI MM NOT_NAMED 1930-02-05 15:00:00 NR -25.1811 52.7107 main 510 505 _____P________ -1 -25.1811 52.7107 99 2 152
1930030S18059 1930 8 SI MM NOT_NAMED 1930-02-05 18:00:00 NR -25.2521 52.7599 main 514 514 _____P________ -1 -25.2521 52.7599 99 1 144
1930030S18059 1930 8 SI MM NOT_NAMED 1930-02-05 21:00:00 NR -25.2916 52.8015 main 514 514 _____P________ -1 -25.2916 52.8015 99 1 129
1930030S18059 1930 8 SI MM NOT_NAMED 1930-02-06 00:00:00 NR -25.3076 52.8375 main 514 509 _____P________ -1 -25.3076 52.8375 99 1 107
1930030S18059 1930 8 SI MM NOT_NAMED 1930-02-06 03:00:00 NR -25.3077 52.8697 main 509 509 _____P________ -1 -25.3077 52.8697 99 1 82
1930030S18059 1930 8 SI MM NOT_NAMED 1930-02-06 06:00:00 NR -25.3000 52.9000 reunion main 509 _____O________ -1 -25.3000 52.9000 99 9.90000 1 0

About IBTrACS Database

This database is a web-friendly format of International Best Track Archive for Climate Stewardship (IBTrACS), a global best track data archive curated by NOAA dating back to 1842.

Updated: 2021-10-21